Time;durP1;ratioP1;P1;durP2;ratioP2;P2;SDS_P1;SDS_P2;PMS_P1;PMS_P2;Temp;Humidity;BMP_temperature;BMP_pressure;BME280_temperature;BME280_humidity;BME280_pressure;Samples;Min_cycle;Max_cycle;Signal;HPM_P1;HPM_P2
2021/10/01 00:02:05;;;;;;;6.40;1.90;;;;;;;;;;4995577;28;20054;-87
2021/10/01 00:04:31;;;;;;;6.72;2.08;;;;;;;;;;5005054;28;20053;-87
2021/10/01 00:06:57;;;;;;;5.95;1.70;;;;;;;;;;4992303;28;20046;-87
2021/10/01 00:09:23;;;;;;;4.75;1.88;;;;;;;;;;5000932;28;20053;-88
2021/10/01 00:11:52;;;;;;;4.63;1.80;;;;;;;;;;4991889;28;20053;-87
2021/10/01 00:14:19;;;;;;;7.88;2.05;;;;;;;;;;5000077;28;20490;-87
2021/10/01 00:16:45;;;;;;;7.30;1.88;;;;;;;;;;4983149;28;20085;-88
2021/10/01 00:19:12;;;;;;;4.32;1.50;;;;;;;;;;4989960;28;20438;-88
2021/10/01 00:21:38;;;;;;;5.85;1.95;;;;;;;;;;4999675;28;20136;-87
2021/10/01 00:24:07;;;;;;;5.78;1.65;;;;;;;;;;4984837;28;20470;-88
2021/10/01 00:26:33;;;;;;;6.18;2.08;;;;;;;;;;4989394;28;20046;-86
2021/10/01 00:28:59;;;;;;;5.07;1.75;;;;;;;;;;5015174;28;20552;-87
2021/10/01 00:31:26;;;;;;;6.18;2.00;;;;;;;;;;5001853;28;20045;-87
2021/10/01 00:33:52;;;;;;;8.35;2.10;;;;;;;;;;4990812;28;20050;-90
2021/10/01 00:36:18;;;;;;;4.97;1.77;;;;;;;;;;4998755;28;20041;-87
2021/10/01 00:38:44;;;;;;;7.97;1.95;;;;;;;;;;4993054;28;20073;-94
2021/10/01 00:41:10;;;;;;;6.72;1.83;;;;;;;;;;4987490;28;20397;-87
2021/10/01 00:43:36;;;;;;;8.23;2.00;;;;;;;;;;4982742;28;20049;-88
2021/10/01 00:46:02;;;;;;;5.72;1.70;;;;;;;;;;4988646;28;20052;-88
2021/10/01 00:48:28;;;;;;;4.65;1.70;;;;;;;;;;5007903;28;20045;-88
2021/10/01 00:50:54;;;;;;;3.38;1.63;;;;;;;;;;4994667;28;20042;-87
2021/10/01 00:53:21;;;;;;;6.15;1.83;;;;;;;;;;4995700;28;20048;-87
2021/10/01 00:55:47;;;;;;;6.88;2.30;;;;;;;;;;5012364;28;20129;-87
2021/10/01 00:58:14;;;;;;;5.28;1.73;;;;;;;;;;5003645;28;20100;-87
2021/10/01 01:03:24;;;;;;;5.50;2.15;;;;;;;;;;4994924;28;20409;-87
2021/10/01 01:06:09;;;;;;;6.13;2.17;;;;;;;;;;5014251;28;20053;-87
2021/10/01 01:08:43;;;;;;;5.90;2.00;;;;;;;;;;5000109;28;20145;-87
2021/10/01 01:11:20;;;;;;;4.15;2.08;;;;;;;;;;5008174;28;20073;-87
2021/10/01 01:13:49;;;;;;;4.65;1.80;;;;;;;;;;4990269;28;20137;-86
2021/10/01 01:16:18;;;;;;;6.75;2.33;;;;;;;;;;4998492;28;20058;-87
2021/10/01 01:18:48;;;;;;;6.85;2.00;;;;;;;;;;4982157;28;20478;-87
2021/10/01 01:21:29;;;;;;;5.80;2.08;;;;;;;;;;5011452;28;20140;-89
2021/10/01 01:24:02;;;;;;;4.53;1.90;;;;;;;;;;5004572;28;20061;-87
2021/10/01 01:26:38;;;;;;;5.40;2.03;;;;;;;;;;5003370;28;20125;-88
2021/10/01 01:29:04;;;;;;;12.90;2.63;;;;;;;;;;4989934;28;20220;-87
2021/10/01 01:31:49;;;;;;;7.07;2.00;;;;;;;;;;4999194;28;20042;-88
2021/10/01 01:34:19;;;;;;;6.72;2.13;;;;;;;;;;4986364;28;20046;-87
2021/10/01 01:36:46;;;;;;;4.72;2.05;;;;;;;;;;5002826;28;20459;-87
2021/10/01 01:39:13;;;;;;;6.97;1.90;;;;;;;;;;5002482;28;20052;-88
2021/10/01 01:41:40;;;;;;;5.55;1.88;;;;;;;;;;5008336;28;20091;-87
2021/10/01 01:44:09;;;;;;;5.82;2.00;;;;;;;;;;4998940;28;20052;-90
2021/10/01 01:46:36;;;;;;;5.05;2.13;;;;;;;;;;5007661;28;20132;-90
2021/10/01 01:49:02;;;;;;;5.75;2.08;;;;;;;;;;5014111;28;20045;-89
2021/10/01 01:51:29;;;;;;;5.03;2.35;;;;;;;;;;4995176;28;20054;-90
2021/10/01 01:53:56;;;;;;;6.18;2.20;;;;;;;;;;4985904;28;20566;-90
2021/10/01 01:56:22;;;;;;;5.97;1.98;;;;;;;;;;4998613;28;20050;-90
2021/10/01 01:58:49;;;;;;;4.38;1.92;;;;;;;;;;4980905;28;20061;-90
2021/10/01 02:01:16;;;;;;;9.35;2.00;;;;;;;;;;4999322;28;20414;-90
2021/10/01 02:03:43;;;;;;;6.47;2.33;;;;;;;;;;5002176;28;20053;-90
2021/10/01 02:06:09;;;;;;;4.50;1.95;;;;;;;;;;5014147;28;20096;-89
2021/10/01 02:08:37;;;;;;;6.70;1.92;;;;;;;;;;4997621;28;20057;-89
2021/10/01 02:11:04;;;;;;;4.03;1.90;;;;;;;;;;4987214;28;20410;-90
2021/10/01 02:13:32;;;;;;;5.68;2.00;;;;;;;;;;4985916;28;20045;-90
2021/10/01 02:15:59;;;;;;;5.35;1.92;;;;;;;;;;5002050;28;20042;-89
2021/10/01 02:18:27;;;;;;;7.30;2.13;;;;;;;;;;4985039;28;20048;-90
2021/10/01 02:20:56;;;;;;;6.03;2.13;;;;;;;;;;5000802;28;20126;-88
2021/10/01 02:23:22;;;;;;;7.13;1.88;;;;;;;;;;4994710;28;20486;-89
2021/10/01 02:29:00;;;;;;;5.50;2.10;;;;;;;;;;5014147;28;20054;-89
2021/10/01 02:31:34;;;;;;;6.85;1.90;;;;;;;;;;5011938;28;20128;-90
2021/10/01 02:34:03;;;;;;;4.70;1.90;;;;;;;;;;4988784;28;20084;-89
2021/10/01 02:36:29;;;;;;;5.25;1.92;;;;;;;;;;5004389;28;20065;-89
2021/10/01 02:38:56;;;;;;;5.70;1.95;;;;;;;;;;4983494;28;20109;-91
2021/10/01 02:41:22;;;;;;;4.75;1.88;;;;;;;;;;4981573;28;20045;-89
2021/10/01 02:43:48;;;;;;;5.65;2.38;;;;;;;;;;4981036;28;20069;-90
2021/10/01 02:46:14;;;;;;;6.45;2.10;;;;;;;;;;5005936;28;20382;-89
2021/10/01 02:48:40;;;;;;;6.50;2.08;;;;;;;;;;4981036;28;20159;-91
2021/10/01 02:51:12;;;;;;;4.60;2.00;;;;;;;;;;4997185;28;20046;-89
2021/10/01 02:53:51;;;;;;;7.18;2.10;;;;;;;;;;4992798;28;20513;-89
2021/10/01 02:56:28;;;;;;;6.25;2.17;;;;;;;;;;5011628;28;20041;-90
2021/10/01 02:58:57;;;;;;;6.60;1.92;;;;;;;;;;4996862;28;20037;-90
2021/10/01 03:01:24;;;;;;;5.38;1.90;;;;;;;;;;4980660;28;20088;-90
2021/10/01 03:06:59;;;;;;;6.00;2.03;;;;;;;;;;5004316;28;20061;-87
2021/10/01 03:09:28;;;;;;;5.20;2.00;;;;;;;;;;4996501;28;20088;-88
2021/10/01 03:11:56;;;;;;;5.07;2.03;;;;;;;;;;5006763;28;20454;-88
2021/10/01 03:14:22;;;;;;;3.70;1.77;;;;;;;;;;5001626;28;20398;-87
2021/10/01 03:16:50;;;;;;;6.10;2.10;;;;;;;;;;5001034;28;20152;-89
2021/10/01 03:19:17;;;;;;;5.22;2.00;;;;;;;;;;4985206;28;20042;-88
2021/10/01 03:21:43;;;;;;;5.82;1.88;;;;;;;;;;4986001;28;20084;-88
2021/10/01 03:24:13;;;;;;;6.05;2.00;;;;;;;;;;4984107;28;20050;-88
2021/10/01 03:26:57;;;;;;;5.72;2.10;;;;;;;;;;5000232;28;20045;-87
2021/10/01 03:29:24;;;;;;;5.55;1.85;;;;;;;;;;4984686;28;20136;-90
2021/10/01 03:31:50;;;;;;;6.80;1.95;;;;;;;;;;5000471;28;20049;-90
2021/10/01 03:34:17;;;;;;;4.95;2.00;;;;;;;;;;5015137;28;20046;-89
2021/10/01 03:36:44;;;;;;;5.00;1.83;;;;;;;;;;4999323;28;20469;-91
2021/10/01 03:39:23;;;;;;;5.05;2.13;;;;;;;;;;5019637;28;20049;-89
2021/10/01 03:42:26;;;;;;;4.75;1.90;;;;;;;;;;5003524;28;20042;-89
2021/10/01 03:44:53;;;;;;;4.50;1.65;;;;;;;;;;5003179;28;20045;-90
2021/10/01 03:47:19;;;;;;;5.65;2.00;;;;;;;;;;4984492;28;20374;-91
2021/10/01 03:49:45;;;;;;;4.78;1.70;;;;;;;;;;4984068;28;20383;-90
2021/10/01 03:52:13;;;;;;;8.85;2.38;;;;;;;;;;4984053;28;20046;-89
2021/10/01 03:54:40;;;;;;;3.72;1.88;;;;;;;;;;5005535;28;20046;-90
2021/10/01 03:57:06;;;;;;;6.57;1.88;;;;;;;;;;5008050;28;20052;-90
2021/10/01 03:59:32;;;;;;;4.60;1.92;;;;;;;;;;5006085;28;20137;-90
2021/10/01 04:01:59;;;;;;;6.13;2.42;;;;;;;;;;5000488;28;20042;-90
2021/10/01 04:04:25;;;;;;;7.18;2.30;;;;;;;;;;5017080;28;20081;-90
2021/10/01 04:06:51;;;;;;;7.32;2.10;;;;;;;;;;5000635;28;20048;-89
2021/10/01 04:09:17;;;;;;;4.45;2.03;;;;;;;;;;5016588;28;20045;-89
2021/10/01 04:11:43;;;;;;;4.07;1.70;;;;;;;;;;4988702;28;20054;-89
2021/10/01 04:14:09;;;;;;;5.90;2.00;;;;;;;;;;4983860;28;20053;-89
2021/10/01 04:17:00;;;;;;;5.57;1.70;;;;;;;;;;4983643;28;20160;-90
2021/10/01 04:19:26;;;;;;;5.70;1.95;;;;;;;;;;4990752;28;20388;-90
2021/10/01 04:21:52;;;;;;;6.90;2.20;;;;;;;;;;5015586;28;20045;-89
2021/10/01 04:24:31;;;;;;;6.93;1.92;;;;;;;;;;5001663;28;20129;-90
2021/10/01 04:27:25;;;;;;;6.80;2.30;;;;;;;;;;4999478;28;20203;-90
2021/10/01 04:29:51;;;;;;;9.13;2.10;;;;;;;;;;4980004;28;20077;-90
2021/10/01 04:32:17;;;;;;;4.88;1.88;;;;;;;;;;4980612;28;20478;-90
2021/10/01 04:35:06;;;;;;;7.15;2.00;;;;;;;;;;5012537;28;20053;-90
2021/10/01 04:37:33;;;;;;;6.10;2.08;;;;;;;;;;4999218;28;20414;-89
2021/10/01 04:39:59;;;;;;;4.15;1.90;;;;;;;;;;5015926;28;20041;-90
2021/10/01 04:42:50;;;;;;;5.65;1.90;;;;;;;;;;4999477;28;20046;-90
2021/10/01 04:45:16;;;;;;;4.88;1.77;;;;;;;;;;4980144;28;20054;-89
2021/10/01 04:47:42;;;;;;;5.55;1.90;;;;;;;;;;4982006;28;20061;-90
2021/10/01 04:50:10;;;;;;;5.68;1.90;;;;;;;;;;4983324;28;20133;-89
2021/10/01 04:53:13;;;;;;;4.57;2.10;;;;;;;;;;4984613;28;20050;-87
2021/10/01 04:55:39;;;;;;;5.50;1.95;;;;;;;;;;4982976;28;20049;-87
2021/10/01 04:58:06;;;;;;;5.07;1.90;;;;;;;;;;4994367;28;20125;-86
2021/10/01 05:00:33;;;;;;;4.78;1.70;;;;;;;;;;5013657;28;20206;-86
2021/10/01 05:02:59;;;;;;;4.13;1.73;;;;;;;;;;4989375;28;20042;-86
2021/10/01 05:05:25;;;;;;;6.47;1.95;;;;;;;;;;4990326;28;20045;-88
2021/10/01 05:07:51;;;;;;;5.32;1.55;;;;;;;;;;4999267;28;20052;-89
2021/10/01 05:10:17;;;;;;;5.18;2.10;;;;;;;;;;5003016;28;20042;-89
2021/10/01 05:12:44;;;;;;;4.68;2.08;;;;;;;;;;5012781;28;20057;-90
2021/10/01 05:15:11;;;;;;;3.83;1.90;;;;;;;;;;4982736;28;20034;-89
2021/10/01 05:17:38;;;;;;;5.63;1.95;;;;;;;;;;4980411;28;20093;-90
2021/10/01 05:20:06;;;;;;;3.85;1.83;;;;;;;;;;4982540;28;20426;-89
2021/10/01 05:22:32;;;;;;;4.30;1.83;;;;;;;;;;4982702;28;20046;-90
2021/10/01 05:25:29;;;;;;;6.22;1.90;;;;;;;;;;4982415;28;20125;-90
2021/10/01 05:27:55;;;;;;;5.05;1.80;;;;;;;;;;4982397;28;20490;-89
2021/10/01 05:30:22;;;;;;;10.10;2.70;;;;;;;;;;4982386;28;20498;-90
2021/10/01 05:32:48;;;;;;;5.53;1.83;;;;;;;;;;4981459;28;20137;-90
2021/10/01 05:38:39;;;;;;;4.80;1.80;;;;;;;;;;5015785;28;20044;-89
2021/10/01 05:41:23;;;;;;;3.80;1.73;;;;;;;;;;4982309;28;20046;-90
2021/10/01 05:43:52;;;;;;;5.50;1.50;;;;;;;;;;4981919;28;20075;-90
2021/10/01 05:46:19;;;;;;;4.75;1.77;;;;;;;;;;4982076;28;20140;-90
2021/10/01 05:48:50;;;;;;;4.72;1.55;;;;;;;;;;4981886;28;20498;-89
2021/10/01 05:51:16;;;;;;;4.53;1.70;;;;;;;;;;4997822;28;20571;-91
2021/10/01 05:56:09;;;;;;;3.85;1.60;;;;;;;;;;4998169;28;20046;-90
2021/10/01 05:58:36;;;;;;;7.05;1.90;;;;;;;;;;4981871;28;20046;-91
2021/10/01 06:01:03;;;;;;;4.45;1.90;;;;;;;;;;4981663;28;20021;-90
2021/10/01 06:03:29;;;;;;;3.95;1.60;;;;;;;;;;4996645;28;20133;-88
2021/10/01 06:05:55;;;;;;;6.47;1.60;;;;;;;;;;4980016;28;20056;-88
2021/10/01 06:08:21;;;;;;;3.65;1.70;;;;;;;;;;4980364;28;20049;-89
2021/10/01 06:10:48;;;;;;;6.05;1.92;;;;;;;;;;4996548;28;20250;-86
2021/10/01 06:13:14;;;;;;;4.85;1.60;;;;;;;;;;4979844;28;20380;-89
2021/10/01 06:15:41;;;;;;;4.47;1.80;;;;;;;;;;4996557;28;20056;-90
2021/10/01 06:18:07;;;;;;;6.03;1.60;;;;;;;;;;4979780;28;20060;-89
2021/10/01 06:20:33;;;;;;;4.85;1.70;;;;;;;;;;4996942;28;20069;-89
2021/10/01 06:22:59;;;;;;;3.80;1.67;;;;;;;;;;4981489;28;20454;-88
2021/10/01 06:25:25;;;;;;;5.00;1.67;;;;;;;;;;4996891;28;20050;-89
2021/10/01 06:27:51;;;;;;;5.30;1.73;;;;;;;;;;4997156;28;20060;-93
2021/10/01 06:30:36;;;;;;;4.97;1.88;;;;;;;;;;4978046;28;20642;-89
2021/10/01 06:33:02;;;;;;;3.03;1.27;;;;;;;;;;4978041;28;20073;-89
2021/10/01 06:35:47;;;;;;;2.70;1.60;;;;;;;;;;4994793;28;20045;-89
2021/10/01 06:38:13;;;;;;;6.55;1.70;;;;;;;;;;4982214;28;20091;-89
2021/10/01 06:40:39;;;;;;;4.75;1.80;;;;;;;;;;4981057;28;20053;-90
2021/10/01 06:43:09;;;;;;;6.07;1.58;;;;;;;;;;4980895;28;20046;-93
2021/10/01 06:45:36;;;;;;;6.68;1.90;;;;;;;;;;4997479;28;20093;-91
2021/10/01 08:20:47;;;;;;;5.50;1.70;;;;;;;;;;4999584;28;20046;-90
2021/10/01 08:23:14;;;;;;;4.72;1.60;;;;;;;;;;5015209;28;20556;-90
2021/10/01 08:25:40;;;;;;;7.88;2.05;;;;;;;;;;5016062;28;20132;-89
2021/10/01 08:28:06;;;;;;;3.95;1.70;;;;;;;;;;5015348;28;20144;-90
2021/10/01 08:30:33;;;;;;;5.68;1.73;;;;;;;;;;4999795;28;20104;-90
2021/10/01 08:32:59;;;;;;;4.72;1.70;;;;;;;;;;5015647;28;20069;-89
2021/10/01 08:35:25;;;;;;;3.42;1.70;;;;;;;;;;5016031;28;20050;-90
2021/10/01 08:37:52;;;;;;;4.68;1.75;;;;;;;;;;4998894;28;20038;-89
2021/10/01 08:40:18;;;;;;;6.78;2.13;;;;;;;;;;4998952;28;20173;-89
2021/10/01 08:42:45;;;;;;;3.38;1.58;;;;;;;;;;4999918;28;20053;-89
2021/10/01 08:45:13;;;;;;;6.78;1.90;;;;;;;;;;4999863;28;20041;-89
2021/10/01 08:47:40;;;;;;;4.68;1.80;;;;;;;;;;4999125;28;20049;-88
2021/10/01 08:50:07;;;;;;;2.75;1.60;;;;;;;;;;4998964;28;20556;-90
2021/10/01 08:52:33;;;;;;;4.70;1.55;;;;;;;;;;4999472;28;20053;-89
2021/10/01 08:55:00;;;;;;;6.70;1.85;;;;;;;;;;4999117;28;20137;-89
2021/10/01 08:57:26;;;;;;;7.50;1.65;;;;;;;;;;4998409;28;20081;-90
2021/10/01 08:59:52;;;;;;;4.88;1.85;;;;;;;;;;4998966;28;20042;-88
2021/10/01 09:02:19;;;;;;;4.85;1.40;;;;;;;;;;4998076;28;20490;-89
2021/10/01 09:04:45;;;;;;;3.90;1.63;;;;;;;;;;4997910;28;20042;-89
2021/10/01 09:07:11;;;;;;;3.17;1.30;;;;;;;;;;4998476;28;20129;-89
2021/10/01 09:09:43;;;;;;;5.18;1.50;;;;;;;;;;5014717;28;20046;-91
2021/10/01 09:12:09;;;;;;;4.15;1.60;;;;;;;;;;4998411;28;20073;-89
2021/10/01 09:14:58;;;;;;;3.17;1.40;;;;;;;;;;4998091;28;20046;-89
2021/10/01 09:17:27;;;;;;;5.13;1.55;;;;;;;;;;4974389;28;20057;-88
2021/10/01 09:19:54;;;;;;;3.00;1.60;;;;;;;;;;4994903;28;20450;-89
2021/10/01 09:22:28;;;;;;;2.63;1.40;;;;;;;;;;4962521;28;20043;-89
2021/10/01 09:25:08;;;;;;;7.20;1.40;;;;;;;;;;4978440;28;20553;-89
2021/10/01 09:27:39;;;;;;;5.13;1.73;;;;;;;;;;4978230;28;20081;-87
2021/10/01 09:30:06;;;;;;;4.82;1.30;;;;;;;;;;4962361;28;20152;-87
2021/10/01 09:32:32;;;;;;;5.35;1.45;;;;;;;;;;4977850;28;20479;-88
2021/10/01 09:34:58;;;;;;;2.58;1.23;;;;;;;;;;4979695;28;20054;-87
2021/10/01 09:37:31;;;;;;;3.17;1.35;;;;;;;;;;4997025;28;20073;-87
2021/10/01 09:39:58;;;;;;;5.03;1.55;;;;;;;;;;4980451;28;20510;-87
2021/10/01 09:42:27;;;;;;;4.30;1.92;;;;;;;;;;4998215;28;20386;-87
2021/10/01 09:44:55;;;;;;;7.43;3.03;;;;;;;;;;4981155;28;20053;-86
2021/10/01 09:47:26;;;;;;;4.88;1.77;;;;;;;;;;4997316;28;20050;-86
2021/10/01 09:50:12;;;;;;;3.03;1.42;;;;;;;;;;4981393;28;20567;-87
2021/10/01 09:52:46;;;;;;;6.32;1.73;;;;;;;;;;4980843;28;20050;-88
2021/10/01 09:55:13;;;;;;;4.25;1.55;;;;;;;;;;4981036;28;20141;-87
2021/10/01 09:57:40;;;;;;;5.30;1.73;;;;;;;;;;4980735;28;20475;-87
2021/10/01 10:00:07;;;;;;;5.57;1.42;;;;;;;;;;4981376;28;20160;-87
2021/10/01 10:02:37;;;;;;;4.53;1.50;;;;;;;;;;4980812;28;20088;-87
2021/10/01 10:05:03;;;;;;;3.45;1.40;;;;;;;;;;4981803;28;20129;-89
2021/10/01 10:07:29;;;;;;;3.10;1.45;;;;;;;;;;4982093;28;20042;-93
2021/10/01 10:09:57;;;;;;;3.65;1.27;;;;;;;;;;4980855;28;20085;-90
2021/10/01 10:12:26;;;;;;;3.47;1.60;;;;;;;;;;4980473;28;20045;-92
2021/10/01 10:14:55;;;;;;;4.07;1.38;;;;;;;;;;4996393;28;20038;-92
2021/10/01 10:17:25;;;;;;;3.70;1.25;;;;;;;;;;4998107;28;20069;-93
2021/10/01 10:19:53;;;;;;;3.97;1.27;;;;;;;;;;4982635;28;20058;-87
2021/10/01 10:22:19;;;;;;;3.33;1.25;;;;;;;;;;4997720;28;20132;-88
2021/10/01 10:24:46;;;;;;;3.00;1.30;;;;;;;;;;4999439;28;20096;-90
2021/10/01 10:27:12;;;;;;;4.10;1.40;;;;;;;;;;4981768;28;20046;-87
2021/10/01 10:29:40;;;;;;;3.85;1.38;;;;;;;;;;4979825;28;20060;-88
2021/10/01 10:32:07;;;;;;;4.30;1.40;;;;;;;;;;5011181;28;20088;-91
2021/10/01 10:34:33;;;;;;;3.70;1.70;;;;;;;;;;4976378;28;20125;-88
2021/10/01 10:37:09;;;;;;;5.57;2.20;;;;;;;;;;4975798;28;20081;-89
2021/10/01 10:39:38;;;;;;;7.43;2.30;;;;;;;;;;4991370;28;20486;-89
2021/10/01 10:42:06;;;;;;;5.28;2.20;;;;;;;;;;5011903;28;20053;-89
2021/10/01 10:44:39;;;;;;;5.55;2.10;;;;;;;;;;5012617;28;20049;-90
2021/10/01 10:47:05;;;;;;;7.47;2.40;;;;;;;;;;4995575;28;20045;-88
2021/10/01 10:49:31;;;;;;;5.47;2.05;;;;;;;;;;4996564;28;20050;-89
2021/10/01 10:52:18;;;;;;;5.85;2.28;;;;;;;;;;5012081;28;20132;-92
2021/10/01 10:54:49;;;;;;;4.43;2.00;;;;;;;;;;4996068;28;20057;-89
2021/10/01 10:57:18;;;;;;;7.95;2.40;;;;;;;;;;4994825;28;20053;-88
2021/10/01 10:59:44;;;;;;;7.18;3.60;;;;;;;;;;4996018;28;20100;-88
2021/10/01 11:05:15;;;;;;;3.10;1.55;;;;;;;;;;4995729;28;20046;-89
2021/10/01 11:07:46;;;;;;;3.35;1.65;;;;;;;;;;5012313;28;20050;-88
2021/10/01 11:10:31;;;;;;;4.65;1.42;;;;;;;;;;4994832;28;20053;-88
2021/10/01 11:13:17;;;;;;;4.78;1.40;;;;;;;;;;4996606;28;20051;-89
2021/10/01 11:15:44;;;;;;;5.05;1.48;;;;;;;;;;4996246;28;20049;-90
2021/10/01 11:18:18;;;;;;;3.45;1.25;;;;;;;;;;4994248;28;20050;-89
2021/10/01 11:20:45;;;;;;;5.03;1.60;;;;;;;;;;4979704;28;20054;-89
2021/10/01 11:23:15;;;;;;;4.68;1.42;;;;;;;;;;4979372;28;20050;-88
2021/10/01 11:25:42;;;;;;;5.18;1.52;;;;;;;;;;4979355;28;20470;-88
2021/10/01 11:28:09;;;;;;;5.65;2.00;;;;;;;;;;5011918;28;20455;-90
2021/10/01 11:30:40;;;;;;;3.58;1.40;;;;;;;;;;5012522;28;20117;-89
2021/10/01 11:33:07;;;;;;;5.13;1.67;;;;;;;;;;5012145;28;20560;-89
2021/10/01 11:35:33;;;;;;;5.70;1.60;;;;;;;;;;4999586;28;20058;-89
2021/10/01 11:37:59;;;;;;;4.10;1.60;;;;;;;;;;4982225;28;20038;-93
2021/10/01 11:40:27;;;;;;;4.57;1.80;;;;;;;;;;4984991;28;20058;-89
2021/10/01 11:42:57;;;;;;;3.42;1.52;;;;;;;;;;4990948;28;20383;-89
2021/10/01 11:45:25;;;;;;;5.40;1.48;;;;;;;;;;4982918;28;20140;-89
2021/10/01 11:48:02;;;;;;;3.63;1.30;;;;;;;;;;4983673;28;20057;-88
2021/10/01 11:50:28;;;;;;;3.25;1.40;;;;;;;;;;4983078;28;20049;-90
2021/10/01 11:52:58;;;;;;;3.75;1.48;;;;;;;;;;4982984;28;20169;-89
2021/10/01 11:55:24;;;;;;;4.72;1.42;;;;;;;;;;5000718;28;20536;-92
2021/10/01 11:57:50;;;;;;;4.60;1.67;;;;;;;;;;4987357;28;20046;-93
2021/10/01 12:00:22;;;;;;;4.65;1.52;;;;;;;;;;5001266;28;20394;-94
2021/10/01 12:02:48;;;;;;;4.60;1.40;;;;;;;;;;4985909;28;20076;-94
2021/10/01 12:05:21;;;;;;;4.35;1.52;;;;;;;;;;4987353;28;20050;-94
2021/10/01 12:07:49;;;;;;;4.82;1.60;;;;;;;;;;5008967;28;20056;-94
2021/10/01 12:10:15;;;;;;;4.53;1.83;;;;;;;;;;4988971;28;20049;-94
2021/10/01 12:13:01;;;;;;;4.72;1.85;;;;;;;;;;5005335;28;20042;-94
2021/10/01 12:15:54;;;;;;;5.68;2.13;;;;;;;;;;4991393;28;20076;-92
2021/10/01 12:18:29;;;;;;;5.30;1.90;;;;;;;;;;4988908;28;20372;-93
2021/10/01 12:20:56;;;;;;;5.18;2.13;;;;;;;;;;4990196;28;20054;-94
2021/10/01 12:23:24;;;;;;;6.03;2.20;;;;;;;;;;4985338;28;20038;-93
2021/10/01 12:25:53;;;;;;;4.28;2.42;;;;;;;;;;4987600;28;20061;-92
2021/10/01 12:28:20;;;;;;;3.70;2.20;;;;;;;;;;4984992;28;20390;-93
2021/10/01 12:30:58;;;;;;;5.78;2.28;;;;;;;;;;4985450;28;20033;-94
2021/10/01 12:33:24;;;;;;;6.28;2.35;;;;;;;;;;4984078;28;20408;-93
2021/10/01 12:35:51;;;;;;;5.53;2.28;;;;;;;;;;4984504;28;20049;-93
2021/10/01 12:38:17;;;;;;;4.40;2.10;;;;;;;;;;4983986;28;20065;-93
2021/10/01 12:40:43;;;;;;;6.25;2.50;;;;;;;;;;5002460;28;20059;-92
2021/10/01 12:43:09;;;;;;;4.05;2.17;;;;;;;;;;4987689;28;20046;-94
2021/10/01 12:45:39;;;;;;;4.07;1.77;;;;;;;;;;4995414;28;20069;-93
2021/10/01 12:48:16;;;;;;;5.13;2.20;;;;;;;;;;4995146;28;20084;-90
2021/10/01 12:50:42;;;;;;;5.70;2.15;;;;;;;;;;4999566;28;20034;-92
2021/10/01 12:53:11;;;;;;;6.28;2.53;;;;;;;;;;4999099;28;20056;-91
2021/10/01 12:55:38;;;;;;;3.90;2.50;;;;;;;;;;5069753;23;20054;-94
2021/10/01 12:58:04;;;;;;;5.70;2.35;;;;;;;;;;5035784;28;20040;-90
2021/10/01 13:00:32;;;;;;;4.45;2.45;;;;;;;;;;5036277;28;20065;-92
2021/10/01 13:02:59;;;;;;;5.07;2.63;;;;;;;;;;5035819;28;20041;-92
2021/10/01 13:05:25;;;;;;;4.95;2.38;;;;;;;;;;5034340;28;20050;-92
2021/10/01 13:08:13;;;;;;;5.70;3.20;;;;;;;;;;5015143;28;20049;-91
2021/10/01 13:10:42;;;;;;;3.50;2.20;;;;;;;;;;5014079;28;20075;-92
2021/10/01 13:13:13;;;;;;;5.05;2.40;;;;;;;;;;5009220;28;20080;-92
2021/10/01 13:15:46;;;;;;;5.13;2.60;;;;;;;;;;5011963;28;20056;-92
2021/10/01 13:18:28;;;;;;;5.05;2.67;;;;;;;;;;5012207;28;20042;-92
2021/10/01 13:20:55;;;;;;;4.43;3.00;;;;;;;;;;5011473;28;20073;-92
2021/10/01 13:23:32;;;;;;;6.82;3.05;;;;;;;;;;5012824;28;20045;-92
2021/10/01 13:26:01;;;;;;;6.35;3.60;;;;;;;;;;5011454;28;20507;-93
2021/10/01 13:28:29;;;;;;;6.65;3.67;;;;;;;;;;5002747;28;20356;-92
2021/10/01 13:30:55;;;;;;;6.15;3.60;;;;;;;;;;5007533;28;20053;-93
2021/10/01 13:33:23;;;;;;;7.88;3.72;;;;;;;;;;5011722;28;20038;-92
2021/10/01 13:35:50;;;;;;;6.85;3.35;;;;;;;;;;5010668;28;20050;-92
2021/10/01 13:38:16;;;;;;;5.55;3.30;;;;;;;;;;5011901;28;20029;-93
2021/10/01 13:40:42;;;;;;;9.52;3.95;;;;;;;;;;5027724;28;20048;-94
2021/10/01 13:43:09;;;;;;;7.38;3.60;;;;;;;;;;5012299;28;20057;-93
2021/10/01 13:45:35;;;;;;;9.25;3.60;;;;;;;;;;5032230;28;20097;-91
2021/10/01 13:48:02;;;;;;;6.20;3.22;;;;;;;;;;5013516;28;20037;-93
2021/10/01 13:50:31;;;;;;;6.82;3.45;;;;;;;;;;5013310;28;20139;-93
2021/10/01 13:52:57;;;;;;;6.80;3.20;;;;;;;;;;5029641;28;20088;-93
2021/10/01 13:55:23;;;;;;;7.28;3.33;;;;;;;;;;5024912;28;20060;-93
2021/10/01 13:57:58;;;;;;;5.28;3.13;;;;;;;;;;5025707;28;20082;-93
2021/10/01 14:00:26;;;;;;;8.18;3.58;;;;;;;;;;5026272;28;20108;-94
2021/10/01 14:02:52;;;;;;;6.47;3.85;;;;;;;;;;5006676;28;20054;-93
2021/10/01 14:05:19;;;;;;;6.90;3.40;;;;;;;;;;5005864;28;20046;-95
2021/10/01 14:07:45;;;;;;;6.10;3.10;;;;;;;;;;5004309;28;20057;-92
2021/10/01 14:10:14;;;;;;;5.68;3.45;;;;;;;;;;5005268;28;20065;-94
2021/10/01 14:12:43;;;;;;;6.57;3.38;;;;;;;;;;5014451;28;20050;-94
2021/10/01 14:15:10;;;;;;;5.60;3.20;;;;;;;;;;5024731;28;20033;-94
2021/10/01 14:17:43;;;;;;;9.40;3.63;;;;;;;;;;5011621;28;20022;-94
2021/10/01 14:20:10;;;;;;;7.18;4.15;;;;;;;;;;5011386;28;20049;-91
2021/10/01 14:22:36;;;;;;;6.63;3.35;;;;;;;;;;5009266;28;20042;-93
2021/10/01 14:25:04;;;;;;;7.30;3.70;;;;;;;;;;5012570;28;20072;-93
2021/10/01 14:27:30;;;;;;;5.72;3.58;;;;;;;;;;5021489;28;20042;-92
2021/10/01 14:29:58;;;;;;;6.28;3.40;;;;;;;;;;5023706;28;20045;-94
2021/10/01 14:32:29;;;;;;;7.13;3.40;;;;;;;;;;5023070;28;20211;-95
2021/10/01 14:34:56;;;;;;;7.28;3.50;;;;;;;;;;5005578;28;20073;-93
2021/10/01 14:37:23;;;;;;;7.47;3.40;;;;;;;;;;5006051;28;20049;-94
2021/10/01 14:39:49;;;;;;;8.25;3.30;;;;;;;;;;5022803;28;20109;-94
2021/10/01 14:42:17;;;;;;;6.70;3.20;;;;;;;;;;5004630;28;20038;-94
2021/10/01 14:44:44;;;;;;;7.00;3.38;;;;;;;;;;5024447;28;20065;-93
2021/10/01 14:47:10;;;;;;;5.38;3.13;;;;;;;;;;5006843;28;20046;-90
2021/10/01 14:49:36;;;;;;;5.80;2.90;;;;;;;;;;5008644;28;20072;-95
2021/10/01 14:52:05;;;;;;;6.30;3.13;;;;;;;;;;5024153;28;20045;-93
2021/10/01 14:54:33;;;;;;;5.45;3.33;;;;;;;;;;5026362;28;20077;-95
2021/10/01 14:57:03;;;;;;;6.55;3.20;;;;;;;;;;5025934;28;20080;-95
2021/10/01 14:59:29;;;;;;;5.50;3.00;;;;;;;;;;5013330;28;20258;-90
2021/10/01 15:01:55;;;;;;;5.53;3.10;;;;;;;;;;5011137;28;20132;-88
2021/10/01 15:04:21;;;;;;;6.82;3.67;;;;;;;;;;5010224;28;20513;-88
2021/10/01 15:06:47;;;;;;;9.65;4.10;;;;;;;;;;5010855;28;20046;-88
2021/10/01 15:09:13;;;;;;;8.52;3.17;;;;;;;;;;5010603;28;20046;-88
2021/10/01 15:11:39;;;;;;;8.30;3.63;;;;;;;;;;5010395;28;20104;-87
2021/10/01 15:14:06;;;;;;;6.68;3.60;;;;;;;;;;5011047;28;20061;-89
2021/10/01 15:16:32;;;;;;;6.28;3.80;;;;;;;;;;4993843;28;20042;-87
2021/10/01 15:18:58;;;;;;;9.00;3.90;;;;;;;;;;5010607;28;20057;-86
2021/10/01 15:21:24;;;;;;;8.52;3.67;;;;;;;;;;4993742;28;20046;-91
2021/10/01 15:23:50;;;;;;;5.53;3.30;;;;;;;;;;4993783;28;20509;-88
2021/10/01 15:26:16;;;;;;;7.05;3.72;;;;;;;;;;4993200;28;20048;-88
2021/10/01 15:28:43;;;;;;;8.35;4.28;;;;;;;;;;4993667;28;20482;-87
2021/10/01 15:31:09;;;;;;;8.30;3.88;;;;;;;;;;4994837;28;20073;-93
2021/10/01 15:33:35;;;;;;;6.45;3.30;;;;;;;;;;4997682;28;20093;-93
2021/10/01 15:36:02;;;;;;;7.70;4.03;;;;;;;;;;4996963;28;20050;-93
2021/10/01 15:38:28;;;;;;;5.47;3.50;;;;;;;;;;4997679;28;20053;-94
2021/10/01 15:40:54;;;;;;;6.63;3.67;;;;;;;;;;5000881;28;20704;-95
2021/10/01 15:43:20;;;;;;;7.15;3.90;;;;;;;;;;5016892;28;20053;-92
2021/10/01 15:45:48;;;;;;;6.47;3.85;;;;;;;;;;4999053;28;20504;-96
2021/10/01 15:48:14;;;;;;;8.20;3.85;;;;;;;;;;4999379;28;20441;-95
2021/10/01 15:50:41;;;;;;;6.28;3.75;;;;;;;;;;4999184;28;20104;-92
2021/10/01 15:53:08;;;;;;;5.40;3.80;;;;;;;;;;5000566;28;20050;-95
2021/10/01 15:55:35;;;;;;;8.13;3.90;;;;;;;;;;5000624;28;20054;-96
2021/10/01 15:58:01;;;;;;;5.93;3.55;;;;;;;;;;5015547;28;20085;-96
2021/10/01 16:00:27;;;;;;;6.95;3.55;;;;;;;;;;5004699;28;20041;-95
2021/10/01 16:02:55;;;;;;;7.13;3.90;;;;;;;;;;5003936;28;20493;-90
2021/10/01 16:05:21;;;;;;;8.23;3.92;;;;;;;;;;5012968;28;20038;-91
2021/10/01 16:07:55;;;;;;;8.38;3.50;;;;;;;;;;4994497;28;20042;-91
2021/10/01 16:10:21;;;;;;;7.10;3.47;;;;;;;;;;4995281;28;20082;-93
2021/10/01 16:12:51;;;;;;;8.82;3.55;;;;;;;;;;5012118;28;20033;-93
2021/10/01 16:15:17;;;;;;;7.78;3.50;;;;;;;;;;5011354;28;20095;-92
2021/10/01 16:17:43;;;;;;;5.95;4.10;;;;;;;;;;4997164;28;20102;-92
2021/10/01 16:20:13;;;;;;;6.90;3.80;;;;;;;;;;4998253;28;20049;-89
2021/10/01 16:22:39;;;;;;;5.68;3.88;;;;;;;;;;5013843;28;20053;-91
2021/10/01 16:25:06;;;;;;;5.35;3.50;;;;;;;;;;5014896;28;20053;-91
2021/10/01 16:27:32;;;;;;;7.72;4.40;;;;;;;;;;4999176;28;20053;-92
2021/10/01 16:29:58;;;;;;;6.75;3.67;;;;;;;;;;4999217;28;20095;-93
2021/10/01 16:32:25;;;;;;;7.43;3.53;;;;;;;;;;5015816;28;20046;-90
2021/10/01 16:34:51;;;;;;;9.20;4.07;;;;;;;;;;4999640;28;20049;-91
2021/10/01 16:37:17;;;;;;;6.65;3.55;;;;;;;;;;4999637;28;20038;-91
2021/10/01 16:39:43;;;;;;;8.35;4.07;;;;;;;;;;4999410;28;20042;-93
2021/10/01 16:42:09;;;;;;;6.25;3.80;;;;;;;;;;4999122;28;20096;-90
2021/10/01 16:44:35;;;;;;;6.75;3.55;;;;;;;;;;5016118;28;20073;-89